sensor_id;sensor_type;location;lat;lon;timestamp;pressure;altitude;pressure_sealevel;temperature;humidity
10897;BME280;5501;51.176;6.470;2022-10-16T00:02:46;100585.78;;;14.82;100.00
10897;BME280;5501;51.176;6.470;2022-10-16T00:07:48;100586.88;;;14.78;100.00
10897;BME280;5501;51.176;6.470;2022-10-16T00:12:49;100592.41;;;14.75;100.00
10897;BME280;5501;51.176;6.470;2022-10-16T00:17:51;100601.09;;;14.80;100.00
10897;BME280;5501;51.176;6.470;2022-10-16T00:22:52;100583.69;;;14.70;100.00
10897;BME280;5501;51.176;6.470;2022-10-16T00:27:55;100586.88;;;14.78;100.00
10897;BME280;5501;51.176;6.470;2022-10-16T00:32:56;100579.53;;;14.83;100.00
10897;BME280;5501;51.176;6.470;2022-10-16T00:37:58;100576.19;;;14.78;100.00
10897;BME280;5501;51.176;6.470;2022-10-16T00:42:59;100576.91;;;14.81;100.00
10897;BME280;5501;51.176;6.470;2022-10-16T00:48:01;100571.13;;;14.72;100.00
10897;BME280;5501;51.176;6.470;2022-10-16T00:53:02;100569.22;;;14.74;100.00
10897;BME280;5501;51.176;6.470;2022-10-16T00:58:04;100558.38;;;14.77;100.00
10897;BME280;5501;51.176;6.470;2022-10-16T01:03:25;100573.72;;;14.73;100.00
10897;BME280;5501;51.176;6.470;2022-10-16T01:08:36;100584.56;;;14.70;100.00
10897;BME280;5501;51.176;6.470;2022-10-16T01:13:42;100591.06;;;14.65;100.00
10897;BME280;5501;51.176;6.470;2022-10-16T01:18:54;100598.16;;;14.66;100.00
10897;BME280;5501;51.176;6.470;2022-10-16T01:24:07;100582.53;;;14.57;100.00
10897;BME280;5501;51.176;6.470;2022-10-16T01:35:03;100584.69;;;14.49;100.00
10897;BME280;5501;51.176;6.470;2022-10-16T01:40:12;100590.34;;;14.43;100.00
10897;BME280;5501;51.176;6.470;2022-10-16T01:45:15;100593.53;;;14.51;100.00
10897;BME280;5501;51.176;6.470;2022-10-16T01:50:20;100594.13;;;14.57;100.00
10897;BME280;5501;51.176;6.470;2022-10-16T01:55:26;100600.06;;;14.64;100.00
10897;BME280;5501;51.176;6.470;2022-10-16T02:00:30;100591.38;;;14.59;100.00
10897;BME280;5501;51.176;6.470;2022-10-16T02:05:38;100601.78;;;14.65;100.00
10897;BME280;5501;51.176;6.470;2022-10-16T02:10:42;100614.53;;;14.60;100.00
10897;BME280;5501;51.176;6.470;2022-10-16T02:15:44;100601.78;;;14.65;100.00
10897;BME280;5501;51.176;6.470;2022-10-16T02:20:51;100618.38;;;14.73;100.00
10897;BME280;5501;51.176;6.470;2022-10-16T02:25:56;100607.28;;;14.80;100.00
10897;BME280;5501;51.176;6.470;2022-10-16T02:31:03;100606.44;;;14.80;100.00
10897;BME280;5501;51.176;6.470;2022-10-16T02:36:06;100604.41;;;14.85;100.00
10897;BME280;5501;51.176;6.470;2022-10-16T02:41:09;100605.88;;;14.92;100.00
10897;BME280;5501;51.176;6.470;2022-10-16T02:46:11;100600.66;;;14.89;100.00
10897;BME280;5501;51.176;6.470;2022-10-16T02:51:12;100621.81;;;14.95;100.00
10897;BME280;5501;51.176;6.470;2022-10-16T02:56:14;100608.53;;;14.92;100.00
10897;BME280;5501;51.176;6.470;2022-10-16T03:01:15;100618.16;;;14.77;100.00
10897;BME280;5501;51.176;6.470;2022-10-16T03:06:18;100613.81;;;14.75;100.00
10897;BME280;5501;51.176;6.470;2022-10-16T03:11:19;100619.19;;;14.75;100.00
10897;BME280;5501;51.176;6.470;2022-10-16T03:16:20;100605.41;;;14.64;100.00
10897;BME280;5501;51.176;6.470;2022-10-16T03:21:22;100606.00;;;14.70;100.00
10897;BME280;5501;51.176;6.470;2022-10-16T03:26:23;100618.00;;;14.80;100.00
10897;BME280;5501;51.176;6.470;2022-10-16T03:31:25;100616.13;;;14.64;100.00
10897;BME280;5501;51.176;6.470;2022-10-16T03:36:27;100612.28;;;14.69;100.00
10897;BME280;5501;51.176;6.470;2022-10-16T03:41:28;100632.81;;;14.69;100.00
10897;BME280;5501;51.176;6.470;2022-10-16T03:46:30;100614.38;;;14.63;100.00
10897;BME280;5501;51.176;6.470;2022-10-16T03:51:31;100622.75;;;14.55;100.00
10897;BME280;5501;51.176;6.470;2022-10-16T03:56:33;100621.69;;;14.39;100.00
10897;BME280;5501;51.176;6.470;2022-10-16T04:01:34;100640.09;;;14.47;100.00
10897;BME280;5501;51.176;6.470;2022-10-16T04:06:36;100641.44;;;14.37;100.00
10897;BME280;5501;51.176;6.470;2022-10-16T04:11:37;100648.94;;;14.29;100.00
10897;BME280;5501;51.176;6.470;2022-10-16T04:16:39;100651.34;;;14.35;100.00
10897;BME280;5501;51.176;6.470;2022-10-16T04:21:40;100661.94;;;14.38;100.00
10897;BME280;5501;51.176;6.470;2022-10-16T04:26:42;100680.13;;;14.30;100.00
10897;BME280;5501;51.176;6.470;2022-10-16T04:31:43;100670.28;;;14.30;100.00
10897;BME280;5501;51.176;6.470;2022-10-16T04:36:47;100658.03;;;14.25;100.00
10897;BME280;5501;51.176;6.470;2022-10-16T04:41:50;100671.41;;;14.25;100.00
10897;BME280;5501;51.176;6.470;2022-10-16T04:46:51;100688.63;;;14.18;100.00
10897;BME280;5501;51.176;6.470;2022-10-16T04:51:53;100694.41;;;14.29;100.00
10897;BME280;5501;51.176;6.470;2022-10-16T04:56:54;100703.75;;;14.19;100.00
10897;BME280;5501;51.176;6.470;2022-10-16T05:01:56;100712.59;;;14.21;100.00
10897;BME280;5501;51.176;6.470;2022-10-16T05:06:57;100705.75;;;14.14;100.00
10897;BME280;5501;51.176;6.470;2022-10-16T05:11:59;100709.94;;;14.19;100.00
10897;BME280;5501;51.176;6.470;2022-10-16T05:17:01;100712.72;;;14.18;100.00
10897;BME280;5501;51.176;6.470;2022-10-16T05:22:02;100718.84;;;14.20;100.00
10897;BME280;5501;51.176;6.470;2022-10-16T05:27:03;100717.69;;;14.27;100.00
10897;BME280;5501;51.176;6.470;2022-10-16T05:32:05;100716.28;;;14.17;100.00
10897;BME280;5501;51.176;6.470;2022-10-16T05:37:06;100735.84;;;14.19;100.00
10897;BME280;5501;51.176;6.470;2022-10-16T05:42:08;100738.22;;;14.26;100.00
10897;BME280;5501;51.176;6.470;2022-10-16T05:47:09;100746.44;;;14.22;100.00
10897;BME280;5501;51.176;6.470;2022-10-16T05:52:12;100744.94;;;14.15;100.00
10897;BME280;5501;51.176;6.470;2022-10-16T05:57:13;100760.75;;;14.19;100.00
10897;BME280;5501;51.176;6.470;2022-10-16T06:02:16;100758.75;;;14.26;100.00
10897;BME280;5501;51.176;6.470;2022-10-16T06:07:17;100773.06;;;14.25;100.00
10897;BME280;5501;51.176;6.470;2022-10-16T06:12:19;100771.19;;;14.27;100.00
10897;BME280;5501;51.176;6.470;2022-10-16T06:17:21;100767.47;;;14.31;100.00
10897;BME280;5501;51.176;6.470;2022-10-16T06:22:22;100779.84;;;14.33;100.00
10897;BME280;5501;51.176;6.470;2022-10-16T06:27:24;100778.28;;;14.28;100.00
10897;BME280;5501;51.176;6.470;2022-10-16T06:32:27;100778.84;;;14.36;100.00
10897;BME280;5501;51.176;6.470;2022-10-16T06:37:28;100802.13;;;14.34;100.00
10897;BME280;5501;51.176;6.470;2022-10-16T06:42:30;100810.16;;;14.54;100.00
10897;BME280;5501;51.176;6.470;2022-10-16T06:47:31;100816.56;;;14.50;100.00
10897;BME280;5501;51.176;6.470;2022-10-16T06:52:33;100831.66;;;14.52;100.00
10897;BME280;5501;51.176;6.470;2022-10-16T06:57:35;100839.88;;;14.48;100.00
10897;BME280;5501;51.176;6.470;2022-10-16T07:02:36;100836.63;;;14.40;100.00
10897;BME280;5501;51.176;6.470;2022-10-16T07:07:38;100847.34;;;14.40;100.00
10897;BME280;5501;51.176;6.470;2022-10-16T07:12:39;100857.31;;;14.36;100.00
10897;BME280;5501;51.176;6.470;2022-10-16T07:17:41;100863.78;;;14.31;100.00
10897;BME280;5501;51.176;6.470;2022-10-16T07:22:42;100871.69;;;14.34;100.00
10897;BME280;5501;51.176;6.470;2022-10-16T07:27:44;100876.09;;;14.35;100.00
10897;BME280;5501;51.176;6.470;2022-10-16T07:32:45;100892.16;;;14.35;100.00
10897;BME280;5501;51.176;6.470;2022-10-16T07:37:47;100900.84;;;14.40;100.00
10897;BME280;5501;51.176;6.470;2022-10-16T07:42:48;100904.97;;;14.48;100.00
10897;BME280;5501;51.176;6.470;2022-10-16T07:47:50;100913.69;;;14.75;100.00
10897;BME280;5501;51.176;6.470;2022-10-16T07:52:51;100922.09;;;14.86;100.00
10897;BME280;5501;51.176;6.470;2022-10-16T07:57:53;100926.22;;;14.94;100.00
10897;BME280;5501;51.176;6.470;2022-10-16T08:02:57;100932.19;;;15.01;100.00
10897;BME280;5501;51.176;6.470;2022-10-16T08:08:01;100935.13;;;15.15;100.00
10897;BME280;5501;51.176;6.470;2022-10-16T08:13:03;100939.19;;;15.25;100.00
10897;BME280;5501;51.176;6.470;2022-10-16T08:18:05;100946.94;;;15.31;100.00
10897;BME280;5501;51.176;6.470;2022-10-16T08:23:07;100949.00;;;15.46;100.00
10897;BME280;5501;51.176;6.470;2022-10-16T08:28:11;100954.88;;;15.54;100.00
10897;BME280;5501;51.176;6.470;2022-10-16T08:33:12;100964.06;;;15.69;100.00
10897;BME280;5501;51.176;6.470;2022-10-16T08:38:14;100983.22;;;15.80;100.00
10897;BME280;5501;51.176;6.470;2022-10-16T08:43:33;100993.19;;;15.96;100.00
10897;BME280;5501;51.176;6.470;2022-10-16T08:48:48;101017.72;;;16.07;100.00
10897;BME280;5501;51.176;6.470;2022-10-16T08:53:54;101018.19;;;16.17;100.00
10897;BME280;5501;51.176;6.470;2022-10-16T08:58:58;101014.78;;;16.32;100.00
10897;BME280;5501;51.176;6.470;2022-10-16T09:15:24;101028.47;;;16.64;98.69
10897;BME280;5501;51.176;6.470;2022-10-16T09:20:36;101036.31;;;16.69;97.43
10897;BME280;5501;51.176;6.470;2022-10-16T09:25:44;101039.94;;;16.86;96.28
10897;BME280;5501;51.176;6.470;2022-10-16T09:30:47;101043.28;;;16.91;94.94
10897;BME280;5501;51.176;6.470;2022-10-16T09:35:53;101045.56;;;16.99;92.31
10897;BME280;5501;51.176;6.470;2022-10-16T09:41:00;101045.31;;;16.86;91.04
10897;BME280;5501;51.176;6.470;2022-10-16T09:46:06;101035.84;;;16.96;90.60
10897;BME280;5501;51.176;6.470;2022-10-16T09:51:17;101040.19;;;16.99;89.21
10897;BME280;5501;51.176;6.470;2022-10-16T09:56:23;101034.94;;;17.14;89.69
10897;BME280;5501;51.176;6.470;2022-10-16T10:01:30;101032.97;;;17.18;89.30
10897;BME280;5501;51.176;6.470;2022-10-16T10:06:34;101028.81;;;17.29;88.43
10897;BME280;5501;51.176;6.470;2022-10-16T10:11:43;101034.22;;;17.11;87.43
10897;BME280;5501;51.176;6.470;2022-10-16T10:16:45;101053.38;;;17.22;88.73
10897;BME280;5501;51.176;6.470;2022-10-16T10:21:48;101043.66;;;17.19;89.63
10897;BME280;5501;51.176;6.470;2022-10-16T10:27:09;101053.56;;;17.36;87.28
10897;BME280;5501;51.176;6.470;2022-10-16T10:32:22;101063.75;;;17.29;88.07
10897;BME280;5501;51.176;6.470;2022-10-16T10:42:45;101051.47;;;17.42;87.07
10897;BME280;5501;51.176;6.470;2022-10-16T10:48:04;101059.09;;;17.68;85.70
10897;BME280;5501;51.176;6.470;2022-10-16T11:04:09;101069.38;;;17.77;82.68
10897;BME280;5501;51.176;6.470;2022-10-16T11:09:53;101075.31;;;17.84;82.05
10897;BME280;5501;51.176;6.470;2022-10-16T11:15:03;101084.41;;;17.98;81.59
10897;BME280;5501;51.176;6.470;2022-10-16T11:20:18;101081.09;;;17.93;82.37
10897;BME280;5501;51.176;6.470;2022-10-16T11:25:23;101082.19;;;18.06;83.56
10897;BME280;5501;51.176;6.470;2022-10-16T11:30:29;101080.72;;;18.33;81.59
10897;BME280;5501;51.176;6.470;2022-10-16T11:40:43;101081.13;;;18.43;80.07
10897;BME280;5501;51.176;6.470;2022-10-16T11:45:51;101083.72;;;18.27;77.63
10897;BME280;5501;51.176;6.470;2022-10-16T11:50:57;101084.22;;;18.35;78.50
10897;BME280;5501;51.176;6.470;2022-10-16T11:56:01;101089.66;;;18.51;76.52
10897;BME280;5501;51.176;6.470;2022-10-16T12:01:19;101086.34;;;18.29;76.91
10897;BME280;5501;51.176;6.470;2022-10-16T12:06:40;101096.06;;;18.48;76.16
10897;BME280;5501;51.176;6.470;2022-10-16T12:11:44;101085.59;;;18.75;73.38
10897;BME280;5501;51.176;6.470;2022-10-16T12:16:58;101086.41;;;18.92;72.59
10897;BME280;5501;51.176;6.470;2022-10-16T12:22:03;101097.19;;;18.92;72.10
10897;BME280;5501;51.176;6.470;2022-10-16T12:27:23;101088.59;;;18.86;73.01
10897;BME280;5501;51.176;6.470;2022-10-16T12:32:34;101087.97;;;18.81;75.21
10897;BME280;5501;51.176;6.470;2022-10-16T12:37:52;101086.44;;;19.08;74.43
10897;BME280;5501;51.176;6.470;2022-10-16T12:42:54;101093.91;;;19.18;72.57
10897;BME280;5501;51.176;6.470;2022-10-16T12:47:55;101089.44;;;19.17;73.56
10897;BME280;5501;51.176;6.470;2022-10-16T12:52:58;101085.19;;;19.13;73.65
10897;BME280;5501;51.176;6.470;2022-10-16T12:58:29;101080.75;;;19.12;74.49
10897;BME280;5501;51.176;6.470;2022-10-16T13:14:25;101084.41;;;19.88;70.71
10897;BME280;5501;51.176;6.470;2022-10-16T13:25:01;101086.22;;;19.57;71.05
10897;BME280;5501;51.176;6.470;2022-10-16T13:30:17;101087.19;;;19.56;72.82
10897;BME280;5501;51.176;6.470;2022-10-16T13:35:26;101077.50;;;19.68;69.20
10897;BME280;5501;51.176;6.470;2022-10-16T13:40:28;101071.03;;;19.70;68.88
10897;BME280;5501;51.176;6.470;2022-10-16T13:45:29;101082.66;;;19.86;69.57
10897;BME280;5501;51.176;6.470;2022-10-16T13:50:31;101091.00;;;19.98;67.49
10897;BME280;5501;51.176;6.470;2022-10-16T13:55:32;101098.44;;;19.78;66.83
10897;BME280;5501;51.176;6.470;2022-10-16T14:00:34;101107.66;;;19.29;70.50
10897;BME280;5501;51.176;6.470;2022-10-16T14:05:52;101091.13;;;19.20;71.65
10897;BME280;5501;51.176;6.470;2022-10-16T14:10:56;101095.31;;;19.25;71.54
10897;BME280;5501;51.176;6.470;2022-10-16T14:16:02;101090.09;;;19.38;74.14
10897;BME280;5501;51.176;6.470;2022-10-16T14:21:10;101105.06;;;19.43;73.96
10897;BME280;5501;51.176;6.470;2022-10-16T14:26:15;101113.94;;;19.30;73.26
10897;BME280;5501;51.176;6.470;2022-10-16T14:31:22;101091.84;;;19.23;74.39
10897;BME280;5501;51.176;6.470;2022-10-16T14:36:27;101106.97;;;19.26;75.77
10897;BME280;5501;51.176;6.470;2022-10-16T14:41:31;101115.66;;;19.15;76.45
10897;BME280;5501;51.176;6.470;2022-10-16T14:46:39;101121.72;;;19.03;77.48
10897;BME280;5501;51.176;6.470;2022-10-16T14:51:41;101114.59;;;19.02;76.37
10897;BME280;5501;51.176;6.470;2022-10-16T14:56:46;101107.44;;;19.01;76.65
10897;BME280;5501;51.176;6.470;2022-10-16T15:01:49;101112.06;;;18.99;78.61
10897;BME280;5501;51.176;6.470;2022-10-16T15:06:50;101101.53;;;18.79;80.19
10897;BME280;5501;51.176;6.470;2022-10-16T15:11:52;101082.38;;;18.68;85.55
10897;BME280;5501;51.176;6.470;2022-10-16T15:16:53;101064.13;;;18.58;89.41
10897;BME280;5501;51.176;6.470;2022-10-16T15:21:55;101066.28;;;18.51;91.67
10897;BME280;5501;51.176;6.470;2022-10-16T15:26:57;101065.16;;;18.55;95.03
10897;BME280;5501;51.176;6.470;2022-10-16T15:31:58;101077.16;;;18.33;97.11
10897;BME280;5501;51.176;6.470;2022-10-16T15:37:03;101077.38;;;18.28;97.90
10897;BME280;5501;51.176;6.470;2022-10-16T15:42:04;101069.94;;;18.50;96.69
10897;BME280;5501;51.176;6.470;2022-10-16T15:47:07;101075.25;;;18.18;96.54
10897;BME280;5501;51.176;6.470;2022-10-16T15:52:09;101061.03;;;18.16;96.24
10897;BME280;5501;51.176;6.470;2022-10-16T15:57:10;101053.38;;;18.08;99.47
10897;BME280;5501;51.176;6.470;2022-10-16T16:02:12;101059.56;;;17.93;100.00
10897;BME280;5501;51.176;6.470;2022-10-16T16:07:13;101065.72;;;17.95;99.86
10897;BME280;5501;51.176;6.470;2022-10-16T16:12:15;101060.44;;;17.94;98.37
10897;BME280;5501;51.176;6.470;2022-10-16T16:17:17;101052.75;;;17.86;98.91
10897;BME280;5501;51.176;6.470;2022-10-16T16:22:19;101051.16;;;17.82;100.00
10897;BME280;5501;51.176;6.470;2022-10-16T16:27:20;101058.75;;;17.74;100.00
10897;BME280;5501;51.176;6.470;2022-10-16T16:32:22;101070.00;;;17.65;99.64
10897;BME280;5501;51.176;6.470;2022-10-16T16:37:23;101059.56;;;17.59;99.15
10897;BME280;5501;51.176;6.470;2022-10-16T16:42:26;101068.56;;;17.58;100.00
10897;BME280;5501;51.176;6.470;2022-10-16T16:47:28;101074.91;;;17.57;100.00
10897;BME280;5501;51.176;6.470;2022-10-16T16:52:30;101090.69;;;17.46;100.00
10897;BME280;5501;51.176;6.470;2022-10-16T16:57:32;101080.50;;;17.34;100.00
10897;BME280;5501;51.176;6.470;2022-10-16T17:02:33;101081.53;;;17.32;100.00
10897;BME280;5501;51.176;6.470;2022-10-16T17:07:35;101087.16;;;17.27;100.00
10897;BME280;5501;51.176;6.470;2022-10-16T17:12:36;101091.88;;;17.41;100.00
10897;BME280;5501;51.176;6.470;2022-10-16T17:17:38;101098.00;;;17.26;100.00
10897;BME280;5501;51.176;6.470;2022-10-16T17:22:39;101108.47;;;17.13;100.00
10897;BME280;5501;51.176;6.470;2022-10-16T17:27:41;101101.34;;;17.12;100.00
10897;BME280;5501;51.176;6.470;2022-10-16T17:32:43;101106.94;;;17.08;100.00
10897;BME280;5501;51.176;6.470;2022-10-16T17:37:44;101106.22;;;17.04;100.00
10897;BME280;5501;51.176;6.470;2022-10-16T17:42:45;101083.91;;;17.02;100.00
10897;BME280;5501;51.176;6.470;2022-10-16T17:47:48;101105.91;;;16.92;100.00
10897;BME280;5501;51.176;6.470;2022-10-16T17:52:50;101105.84;;;16.93;100.00
10897;BME280;5501;51.176;6.470;2022-10-16T17:57:51;101104.25;;;16.89;100.00
10897;BME280;5501;51.176;6.470;2022-10-16T18:02:53;101106.72;;;16.94;100.00
10897;BME280;5501;51.176;6.470;2022-10-16T18:07:55;101097.50;;;16.99;100.00
10897;BME280;5501;51.176;6.470;2022-10-16T18:12:56;101100.66;;;16.90;100.00
10897;BME280;5501;51.176;6.470;2022-10-16T18:17:58;101108.03;;;16.85;100.00
10897;BME280;5501;51.176;6.470;2022-10-16T18:22:59;101111.28;;;16.92;100.00
10897;BME280;5501;51.176;6.470;2022-10-16T18:28:00;101116.31;;;16.99;100.00
10897;BME280;5501;51.176;6.470;2022-10-16T18:33:02;101130.69;;;16.98;100.00
10897;BME280;5501;51.176;6.470;2022-10-16T18:38:05;101140.84;;;17.10;100.00
10897;BME280;5501;51.176;6.470;2022-10-16T18:43:07;101197.06;;;16.96;100.00
10897;BME280;5501;51.176;6.470;2022-10-16T18:48:08;101193.59;;;16.94;100.00
10897;BME280;5501;51.176;6.470;2022-10-16T18:53:10;101210.53;;;16.76;100.00
10897;BME280;5501;51.176;6.470;2022-10-16T18:58:11;101184.91;;;16.49;100.00
10897;BME280;5501;51.176;6.470;2022-10-16T19:03:13;101182.84;;;16.56;100.00
10897;BME280;5501;51.176;6.470;2022-10-16T19:08:14;101195.94;;;16.43;100.00
10897;BME280;5501;51.176;6.470;2022-10-16T19:13:16;101186.31;;;16.38;100.00
10897;BME280;5501;51.176;6.470;2022-10-16T19:18:17;101194.94;;;16.46;100.00
10897;BME280;5501;51.176;6.470;2022-10-16T19:23:26;101185.06;;;16.46;100.00
10897;BME280;5501;51.176;6.470;2022-10-16T19:28:28;101195.50;;;16.32;100.00
10897;BME280;5501;51.176;6.470;2022-10-16T19:33:30;101198.19;;;16.32;100.00
10897;BME280;5501;51.176;6.470;2022-10-16T19:38:32;101191.34;;;16.25;100.00
10897;BME280;5501;51.176;6.470;2022-10-16T19:43:33;101194.81;;;16.27;100.00
10897;BME280;5501;51.176;6.470;2022-10-16T19:48:35;101188.94;;;16.39;100.00
10897;BME280;5501;51.176;6.470;2022-10-16T19:53:37;101198.72;;;16.20;100.00
10897;BME280;5501;51.176;6.470;2022-10-16T19:58:39;101186.25;;;16.19;100.00
10897;BME280;5501;51.176;6.470;2022-10-16T20:03:44;101192.97;;;16.29;100.00
10897;BME280;5501;51.176;6.470;2022-10-16T20:08:48;101182.22;;;16.29;100.00
10897;BME280;5501;51.176;6.470;2022-10-16T20:13:50;101180.63;;;16.25;100.00
10897;BME280;5501;51.176;6.470;2022-10-16T20:18:52;101194.16;;;16.02;100.00
10897;BME280;5501;51.176;6.470;2022-10-16T20:23:54;101191.47;;;16.02;100.00
10897;BME280;5501;51.176;6.470;2022-10-16T20:28:55;101205.94;;;15.98;100.00
10897;BME280;5501;51.176;6.470;2022-10-16T20:34:01;101201.38;;;16.00;100.00
10897;BME280;5501;51.176;6.470;2022-10-16T20:39:04;101195.22;;;15.98;100.00
10897;BME280;5501;51.176;6.470;2022-10-16T20:44:06;101183.19;;;15.87;100.00
10897;BME280;5501;51.176;6.470;2022-10-16T20:49:08;101183.81;;;15.93;100.00
10897;BME280;5501;51.176;6.470;2022-10-16T20:54:16;101187.16;;;15.98;100.00
10897;BME280;5501;51.176;6.470;2022-10-16T20:59:18;101183.28;;;16.05;100.00
10897;BME280;5501;51.176;6.470;2022-10-16T21:04:19;101172.28;;;16.11;100.00
10897;BME280;5501;51.176;6.470;2022-10-16T21:09:21;101173.75;;;16.18;100.00
10897;BME280;5501;51.176;6.470;2022-10-16T21:14:22;101171.88;;;16.20;100.00
10897;BME280;5501;51.176;6.470;2022-10-16T21:19:24;101168.53;;;16.15;100.00
10897;BME280;5501;51.176;6.470;2022-10-16T21:24:25;101171.03;;;16.20;100.00
10897;BME280;5501;51.176;6.470;2022-10-16T21:29:27;101164.63;;;16.22;100.00
10897;BME280;5501;51.176;6.470;2022-10-16T21:34:28;101162.03;;;16.21;100.00
10897;BME280;5501;51.176;6.470;2022-10-16T21:39:30;101166.25;;;16.26;100.00
10897;BME280;5501;51.176;6.470;2022-10-16T21:44:31;101160.06;;;16.24;100.00
10897;BME280;5501;51.176;6.470;2022-10-16T21:49:33;101166.38;;;16.23;100.00
10897;BME280;5501;51.176;6.470;2022-10-16T21:54:34;101147.94;;;16.16;100.00
10897;BME280;5501;51.176;6.470;2022-10-16T21:59:35;101154.03;;;16.19;100.00
10897;BME280;5501;51.176;6.470;2022-10-16T22:04:37;101143.41;;;16.16;100.00
10897;BME280;5501;51.176;6.470;2022-10-16T22:09:38;101155.94;;;16.17;100.00
10897;BME280;5501;51.176;6.470;2022-10-16T22:14:40;101159.28;;;16.22;100.00
10897;BME280;5501;51.176;6.470;2022-10-16T22:19:41;101145.91;;;16.21;100.00
10897;BME280;5501;51.176;6.470;2022-10-16T22:24:43;101138.00;;;16.18;100.00
10897;BME280;5501;51.176;6.470;2022-10-16T22:29:44;101141.56;;;16.18;100.00
10897;BME280;5501;51.176;6.470;2022-10-16T22:34:46;101145.19;;;16.17;100.00
10897;BME280;5501;51.176;6.470;2022-10-16T22:39:47;101143.41;;;16.16;100.00
10897;BME280;5501;51.176;6.470;2022-10-16T22:44:49;101136.50;;;16.11;100.00
10897;BME280;5501;51.176;6.470;2022-10-16T22:49:50;101150.69;;;16.14;100.00
10897;BME280;5501;51.176;6.470;2022-10-16T22:54:51;101143.28;;;16.19;100.00
10897;BME280;5501;51.176;6.470;2022-10-16T22:59:53;101150.47;;;16.19;100.00
10897;BME280;5501;51.176;6.470;2022-10-16T23:04:54;101155.03;;;16.17;100.00
10897;BME280;5501;51.176;6.470;2022-10-16T23:09:56;101156.28;;;16.08;100.00
10897;BME280;5501;51.176;6.470;2022-10-16T23:14:57;101154.38;;;16.12;100.00
10897;BME280;5501;51.176;6.470;2022-10-16T23:19:59;101160.66;;;16.11;100.00
10897;BME280;5501;51.176;6.470;2022-10-16T23:25:00;101154.56;;;16.07;100.00
10897;BME280;5501;51.176;6.470;2022-10-16T23:30:02;101155.28;;;16.11;100.00
10897;BME280;5501;51.176;6.470;2022-10-16T23:35:04;101161.53;;;16.11;100.00
10897;BME280;5501;51.176;6.470;2022-10-16T23:40:06;101150.13;;;16.06;100.00
10897;BME280;5501;51.176;6.470;2022-10-16T23:45:07;101159.03;;;16.07;100.00
10897;BME280;5501;51.176;6.470;2022-10-16T23:50:09;101168.09;;;16.04;100.00
10897;BME280;5501;51.176;6.470;2022-10-16T23:55:10;101160.22;;;16.01;100.00
